Time;durP1;ratioP1;P1;durP2;ratioP2;P2;SDS_P1;SDS_P2;PMS_P1;PMS_P2;Temp;Humidity;BMP_temperature;BMP_pressure;BME280_temperature;BME280_humidity;BME280_pressure;Samples;Min_cycle;Max_cycle;Signal;HPM_P1;HPM_P2
2023/10/12 00:02:04;;;;;;;13.90;8.25;;;;;;;18.46;71.74;100951.03;3614818;39;20059;-66
2023/10/12 00:04:43;;;;;;;14.43;8.73;;;;;;;18.51;72.73;100970.50;3616481;39;20058;-67
2023/10/12 00:07:15;;;;;;;12.30;8.30;;;;;;;18.48;73.17;100965.34;3618207;39;20066;-65
2023/10/12 00:09:48;;;;;;;15.25;8.60;;;;;;;18.51;73.28;100986.84;3613719;39;20563;-67
2023/10/12 00:12:24;;;;;;;15.38;8.18;;;;;;;18.50;73.35;100985.13;3614766;39;20050;-66
2023/10/12 00:14:54;;;;;;;15.40;8.43;;;;;;;18.49;74.18;100986.09;3615167;39;20362;-66
2023/10/12 00:17:19;;;;;;;13.88;8.85;;;;;;;18.36;73.95;100961.03;3615356;39;20046;-65
2023/10/12 00:19:45;;;;;;;17.83;9.25;;;;;;;18.42;74.71;100974.06;3606154;39;20047;-68
2023/10/12 00:22:15;;;;;;;17.73;8.95;;;;;;;18.44;74.80;100981.09;3614629;39;20054;-66
2023/10/12 00:24:41;;;;;;;15.50;9.57;;;;;;;18.43;74.79;100983.97;3613540;39;20082;-65
2023/10/12 00:27:15;;;;;;;16.17;9.07;;;;;;;18.42;75.88;100993.97;3613746;39;20050;-65
2023/10/12 00:29:41;;;;;;;13.60;9.70;;;;;;;18.39;75.72;100987.97;3614189;39;20047;-67
2023/10/12 00:32:09;;;;;;;17.52;10.07;;;;;;;18.36;76.96;100990.97;3613919;39;20075;-65
2023/10/12 00:34:38;;;;;;;17.10;10.18;;;;;;;18.33;77.88;100995.72;3615023;39;20066;-66
2023/10/12 00:37:06;;;;;;;20.25;10.43;;;;;;;18.16;78.38;100976.47;3616060;39;20043;-68
2023/10/12 00:39:56;;;;;;;16.27;11.15;;;;;;;18.28;79.06;101003.44;3614002;39;20043;-67
2023/10/12 00:42:32;;;;;;;20.48;11.80;;;;;;;18.23;80.02;101008.41;3606011;39;20086;-68
2023/10/12 00:45:05;;;;;;;17.52;11.10;;;;;;;18.19;80.86;101015.16;3618192;39;20053;-67
2023/10/12 00:47:48;;;;;;;23.60;12.85;;;;;;;18.16;82.26;101020.00;3615101;39;20078;-69
2023/10/12 00:50:15;;;;;;;20.00;12.73;;;;;;;18.11;82.34;101034.03;3616046;39;20050;-67
2023/10/12 00:52:57;;;;;;;21.13;13.50;;;;;;;18.06;83.96;101030.88;3614011;39;20370;-67
2023/10/12 00:55:36;;;;;;;20.40;13.25;;;;;;;17.89;84.37;101004.31;3607677;39;20047;-70
2023/10/12 00:58:09;;;;;;;21.08;13.27;;;;;;;17.49;85.33;100948.06;3616577;39;20051;-68
2023/10/12 01:00:51;;;;;;;21.05;13.23;;;;;;;17.73;86.03;101008.41;3613818;39;20101;-67
2023/10/12 01:03:35;;;;;;;20.48;13.95;;;;;;;17.79;86.98;101034.19;3616736;39;20052;-67
2023/10/12 01:08:33;;;;;;;18.67;13.90;;;;;;;17.70;88.74;101014.09;3616024;39;20195;-68
2023/10/12 01:11:06;;;;;;;24.75;15.00;;;;;;;17.63;89.78;101015.63;3616049;39;20051;-71
2023/10/12 01:13:33;;;;;;;22.57;15.60;;;;;;;17.54;90.03;101008.31;3617561;39;20062;-68
2023/10/12 01:16:20;;;;;;;20.05;15.50;;;;;;;17.61;91.30;101031.22;3613609;39;20386;-68
2023/10/12 01:18:46;;;;;;;23.63;16.52;;;;;;;17.57;92.50;101036.09;3616434;39;20385;-68
2023/10/12 01:21:12;;;;;;;19.92;14.93;;;;;;;17.55;91.89;101031.78;3615120;39;20051;-68
2023/10/12 01:23:41;;;;;;;25.50;17.30;;;;;;;17.51;92.74;101038.47;3613228;39;20057;-68
2023/10/12 01:26:12;;;;;;;26.13;17.00;;;;;;;17.45;94.10;101014.56;3615451;39;20065;-69
2023/10/12 01:28:38;;;;;;;24.73;16.67;;;;;;;17.46;93.97;101029.84;3613575;39;20126;-68
2023/10/12 01:31:06;;;;;;;24.63;17.25;;;;;;;17.33;94.73;101011.03;3615332;39;20047;-67
2023/10/12 01:33:32;;;;;;;25.92;17.85;;;;;;;17.35;95.58;101012.63;3614731;39;20050;-68
2023/10/12 01:35:59;;;;;;;27.65;18.55;;;;;;;17.31;96.22;100997.56;3617396;39;20053;-68
2023/10/12 01:38:36;;;;;;;30.23;18.55;;;;;;;17.34;96.96;100982.88;3614150;39;20115;-69
2023/10/12 01:41:09;;;;;;;31.05;18.88;;;;;;;17.26;97.10;100969.97;3615987;39;20355;-67
2023/10/12 01:43:35;;;;;;;25.25;18.55;;;;;;;17.36;96.90;100984.47;3614306;39;20135;-68
2023/10/12 01:46:14;;;;;;;24.83;19.08;;;;;;;17.35;97.62;100992.75;3615892;39;20051;-68
2023/10/12 01:48:42;;;;;;;26.17;18.15;;;;;;;17.34;97.46;100980.16;3616170;39;20062;-69
2023/10/12 01:51:19;;;;;;;27.88;18.20;;;;;;;17.20;97.59;100951.50;3608707;39;20086;-67
2023/10/12 01:53:44;;;;;;;25.90;18.10;;;;;;;17.34;97.97;101000.03;3616152;39;20054;-68
2023/10/12 01:56:11;;;;;;;30.27;18.27;;;;;;;17.30;97.87;101005.88;3616634;39;20441;-69
2023/10/12 01:58:43;;;;;;;24.98;18.67;;;;;;;17.28;98.63;101006.00;3614427;39;20062;-69
2023/10/12 02:01:18;;;;;;;30.45;19.92;;;;;;;16.78;98.88;100924.38;3616500;39;20075;-69
2023/10/12 02:03:44;;;;;;;30.23;20.13;;;;;;;17.08;98.19;100982.44;3615788;39;20334;-67
2023/10/12 02:06:13;;;;;;;25.95;19.88;;;;;;;17.15;98.84;100992.63;3614575;39;20057;-69
2023/10/12 02:08:46;;;;;;;27.10;19.90;;;;;;;17.13;98.39;100988.34;3615000;39;20158;-68
2023/10/12 02:13:41;;;;;;;28.88;21.17;;;;;;;17.06;99.15;101000.72;3614351;39;20046;-69
2023/10/12 02:16:12;;;;;;;25.70;20.52;;;;;;;17.00;98.61;100999.41;3615333;39;20051;-69
2023/10/12 02:18:38;;;;;;;32.58;21.17;;;;;;;16.91;99.28;101001.06;3616919;39;20123;-68
2023/10/12 02:26:52;;;;;;;28.48;21.48;;;;;;;16.83;99.73;100989.97;3612948;39;20069;-68
2023/10/12 02:29:18;;;;;;;26.50;20.00;;;;;;;16.84;100.00;100979.97;3615483;39;20047;-67
2023/10/12 02:34:17;;;;;;;25.97;20.43;;;;;;;16.82;100.00;100961.09;3612152;39;20061;-68
2023/10/12 02:39:31;;;;;;;26.15;20.85;;;;;;;16.81;100.00;100956.69;3614970;39;20045;-67
2023/10/12 02:44:36;;;;;;;27.52;20.42;;;;;;;16.67;100.00;100951.53;3613229;39;20484;-68
2023/10/12 02:47:12;;;;;;;28.45;20.98;;;;;;;16.75;100.00;100959.03;3614805;39;20059;-67
2023/10/12 02:49:40;;;;;;;26.92;19.27;;;;;;;16.77;100.00;100970.63;3615830;39;20070;-69
2023/10/12 02:52:08;;;;;;;31.77;21.02;;;;;;;16.75;100.00;100949.06;3616134;39;20095;-69
2023/10/12 02:54:50;;;;;;;27.92;20.35;;;;;;;16.72;100.00;100952.00;3617424;39;20625;-69
2023/10/12 02:57:23;;;;;;;26.75;21.08;;;;;;;16.76;100.00;100964.34;3617899;39;20051;-68
2023/10/12 03:00:12;;;;;;;;;;;;;;;16.71;100.00;100961.13;3617893;39;20267;-67
2023/10/12 03:02:43;;;;;;;27.02;19.83;;;;;;;16.66;100.00;100947.97;3614899;39;19937;-68
2023/10/12 03:05:17;;;;;;;28.52;20.45;;;;;;;16.71;100.00;100966.56;3618283;39;20046;-69
2023/10/12 03:07:44;;;;;;;27.73;21.40;;;;;;;16.62;100.00;100946.50;3615258;39;20059;-68
2023/10/12 03:10:29;;;;;;;25.10;19.88;;;;;;;16.67;100.00;100959.66;3617191;39;20066;-67
2023/10/12 03:12:55;;;;;;;25.77;19.42;;;;;;;16.66;100.00;100958.81;3613569;39;20058;-68
2023/10/12 03:15:56;;;;;;;26.55;19.23;;;;;;;16.61;100.00;100942.06;3617344;39;20295;-68
2023/10/12 03:18:12;;;;;;;27.55;19.10;;;;;;;16.67;100.00;100954.25;3616525;39;20059;-68
2023/10/12 03:20:38;;;;;;;25.30;18.80;;;;;;;16.64;100.00;100947.22;3617804;39;20379;-68
2023/10/12 03:23:16;;;;;;;24.55;18.63;;;;;;;16.64;100.00;100955.34;3613794;39;20058;-68
2023/10/12 03:25:51;;;;;;;28.20;19.00;;;;;;;16.64;100.00;100949.94;3617738;39;20122;-67
2023/10/12 03:28:30;;;;;;;27.33;18.63;;;;;;;16.62;100.00;100961.94;3616444;39;20047;-69
2023/10/12 03:31:15;;;;;;;24.40;17.90;;;;;;;16.61;100.00;100952.06;3615781;39;20050;-68
2023/10/12 03:33:46;;;;;;;22.08;16.92;;;;;;;16.61;100.00;100952.06;3618065;39;20047;-68
2023/10/12 03:36:22;;;;;;;24.27;16.48;;;;;;;16.23;100.00;100891.03;3615992;39;20043;-68
2023/10/12 03:44:40;;;;;;;24.05;15.73;;;;;;;16.54;100.00;100948.16;3615412;39;20054;-67
2023/10/12 03:52:39;;;;;;;20.45;16.13;;;;;;;16.32;100.00;100935.53;3613516;39;20112;-68
2023/10/12 03:57:45;;;;;;;21.90;16.10;;;;;;;16.50;100.00;100971.13;3616437;39;20067;-68
2023/10/12 04:02:45;;;;;;;22.10;15.75;;;;;;;16.48;100.00;100966.66;3615275;39;20322;-68
2023/10/12 04:21:22;;;;;;;;;;;;;;;16.46;100.00;100986.81;3617214;39;20057;-67
2023/10/12 04:29:16;;;;;;;21.95;16.83;;;;;;;16.46;100.00;100979.50;3616330;39;20412;-68
2023/10/12 04:34:10;;;;;;;23.63;17.20;;;;;;;16.44;100.00;100980.63;3614330;39;20045;-68
2023/10/12 04:39:15;;;;;;;24.83;16.85;;;;;;;16.48;100.00;100985.66;3616849;39;20123;-69
2023/10/12 04:41:47;;;;;;;24.23;18.05;;;;;;;16.48;100.00;100982.94;3613973;39;20374;-68
2023/10/12 04:47:04;;;;;;;22.65;16.65;;;;;;;16.49;100.00;100997.38;3613901;39;20116;-68
2023/10/12 04:53:06;;;;;;;25.27;16.67;;;;;;;16.47;100.00;101002.94;3614371;39;20065;-68
2023/10/12 04:57:17;;;;;;;22.73;15.93;;;;;;;16.47;100.00;100992.09;3613992;39;20156;-68
2023/10/12 04:59:49;;;;;;;21.98;16.75;;;;;;;16.11;100.00;100930.03;3606408;39;20047;-67
2023/10/12 05:09:51;;;;;;;18.65;15.02;;;;;;;16.54;100.00;101024.13;3614576;39;20059;-68
2023/10/12 05:12:20;;;;;;;21.42;14.45;;;;;;;16.56;100.00;101022.16;3615993;39;20051;-68
2023/10/12 05:14:47;;;;;;;22.77;15.15;;;;;;;16.43;100.00;101014.19;3607206;39;20045;-69
2023/10/12 05:17:14;;;;;;;17.25;13.85;;;;;;;16.57;100.00;101037.44;3614303;39;20095;-69
2023/10/12 05:19:41;;;;;;;21.10;14.43;;;;;;;16.35;100.00;101003.09;3614747;39;20043;-69
2023/10/12 05:22:07;;;;;;;20.55;13.77;;;;;;;16.44;100.00;101022.19;3614352;39;20073;-69
2023/10/12 05:24:32;;;;;;;18.20;13.18;;;;;;;16.53;100.00;101033.28;3614834;39;20080;-69
2023/10/12 05:27:09;;;;;;;16.92;13.30;;;;;;;16.57;100.00;101037.44;3613558;39;20061;-68
2023/10/12 05:29:45;;;;;;;17.83;12.85;;;;;;;16.57;100.00;101035.59;3612978;39;20055;-70
2023/10/12 05:37:17;;;;;;;16.08;12.63;;;;;;;16.57;100.00;101029.31;3614123;39;20059;-69
2023/10/12 05:39:51;;;;;;;18.63;12.77;;;;;;;16.56;100.00;101033.03;3613941;39;20054;-68
2023/10/12 05:42:19;;;;;;;;;;;;;;;16.45;100.00;101015.75;3615237;39;20055;-68
2023/10/12 05:44:50;;;;;;;17.27;12.52;;;;;;;16.60;100.00;101032.63;3614649;39;19926;-69
2023/10/12 05:47:18;;;;;;;19.88;12.65;;;;;;;16.61;100.00;101034.34;3617239;39;20400;-69
2023/10/12 05:49:45;;;;;;;19.40;13.18;;;;;;;16.61;100.00;101039.75;3617362;39;20047;-68
2023/10/12 05:52:11;;;;;;;16.17;12.63;;;;;;;16.60;100.00;101045.34;3607238;39;20119;-68
2023/10/12 05:54:40;;;;;;;19.55;12.23;;;;;;;16.64;100.00;101065.78;3613541;39;20051;-69
2023/10/12 05:57:19;;;;;;;18.92;12.63;;;;;;;16.64;100.00;101063.06;3614477;39;20083;-67
2023/10/12 05:59:49;;;;;;;18.15;12.15;;;;;;;16.62;100.00;101071.38;3618562;39;20062;-69
2023/10/12 06:02:17;;;;;;;17.20;12.32;;;;;;;16.62;100.00;101062.38;3616420;39;20130;-68
2023/10/12 06:04:44;;;;;;;20.42;12.65;;;;;;;16.35;100.00;101024.81;3612241;39;20331;-68
2023/10/12 06:07:11;;;;;;;16.85;12.48;;;;;;;16.60;100.00;101067.03;3618553;39;20051;-69
2023/10/12 06:09:37;;;;;;;18.73;12.80;;;;;;;16.59;100.00;101068.03;3617016;39;20054;-69
2023/10/12 06:12:07;;;;;;;20.67;13.05;;;;;;;16.60;100.00;101067.03;3615165;39;20057;-69
2023/10/12 06:14:36;;;;;;;16.67;12.35;;;;;;;16.61;100.00;101064.19;3613966;39;20135;-69
2023/10/12 06:17:05;;;;;;;17.00;12.80;;;;;;;16.61;100.00;101074.19;3613708;39;20053;-68
2023/10/12 06:19:34;;;;;;;18.27;13.00;;;;;;;16.63;100.00;101066.78;3615558;39;20166;-70
2023/10/12 06:22:19;;;;;;;16.85;12.35;;;;;;;16.63;100.00;101074.94;3615652;39;20054;-69
2023/10/12 06:24:49;;;;;;;19.20;12.40;;;;;;;16.62;100.00;101086.78;3612918;39;20062;-69
2023/10/12 06:29:54;;;;;;;17.73;12.35;;;;;;;16.60;100.00;101076.03;3614969;39;20102;-69
2023/10/12 06:32:33;;;;;;;15.98;12.10;;;;;;;16.61;100.00;101087.75;3613832;39;20059;-69
2023/10/12 06:35:58;;;;;;;22.67;12.65;;;;;;;16.60;100.00;101084.19;3615766;39;20122;-69
2023/10/12 06:45:51;;;;;;;16.50;12.88;;;;;;;16.62;100.00;101086.78;3615652;39;20124;-66
2023/10/12 06:53:34;;;;;;;17.25;12.70;;;;;;;16.59;100.00;101098.75;3614631;39;20127;-66
2023/10/12 07:04:28;;;;;;;19.02;13.05;;;;;;;16.53;100.00;101104.69;3613943;39;20127;-64
2023/10/12 07:06:56;;;;;;;17.67;12.65;;;;;;;16.55;100.00;101107.25;3614585;39;20311;-66
2023/10/12 07:09:37;;;;;;;16.98;13.05;;;;;;;16.56;100.00;101119.88;3616052;39;20225;-64
2023/10/12 07:12:03;;;;;;;20.60;13.32;;;;;;;16.55;100.00;101107.25;3617147;39;20062;-65
2023/10/12 07:14:35;;;;;;;20.88;13.13;;;;;;;16.49;100.00;101092.34;3615492;39;20293;-66
2023/10/12 07:17:02;;;;;;;17.33;13.30;;;;;;;16.57;100.00;101110.72;3618884;39;20057;-66
2023/10/12 07:19:28;;;;;;;19.63;12.88;;;;;;;16.59;100.00;101108.75;3613692;39;20058;-64
2023/10/12 07:22:01;;;;;;;20.80;13.40;;;;;;;16.41;100.00;101082.13;3605526;39;20057;-66
2023/10/12 07:24:27;;;;;;;18.95;12.85;;;;;;;16.59;100.00;101123.19;3616563;39;20053;-66
2023/10/12 07:26:52;;;;;;;18.88;13.70;;;;;;;16.62;100.00;101128.38;3615824;39;20054;-67
2023/10/12 07:29:19;;;;;;;19.58;12.95;;;;;;;16.63;100.00;101126.50;3617576;39;20292;-65
2023/10/12 07:31:48;;;;;;;19.40;12.95;;;;;;;16.48;100.00;101106.91;3616570;39;20318;-64
2023/10/12 07:34:18;;;;;;;17.80;12.73;;;;;;;16.67;100.00;101138.81;3613486;39;20047;-65
2023/10/12 07:36:53;;;;;;;16.30;13.13;;;;;;;16.67;100.00;101134.25;3615981;39;20049;-66
2023/10/12 07:39:20;;;;;;;17.45;12.70;;;;;;;16.57;100.00;101111.59;3617359;39;20050;-64
2023/10/12 07:42:02;;;;;;;17.13;12.77;;;;;;;16.71;100.00;101140.28;3614335;39;20046;-64
2023/10/12 07:44:41;;;;;;;16.63;12.93;;;;;;;16.68;100.00;101135.09;3616278;39;20054;-65
2023/10/12 07:47:19;;;;;;;20.95;12.98;;;;;;;16.71;100.00;101140.28;3614869;39;20110;-66
2023/10/12 07:49:51;;;;;;;18.73;13.85;;;;;;;16.73;100.00;101135.59;3614647;39;20061;-65
2023/10/12 07:57:22;;;;;;;18.08;12.68;;;;;;;16.65;100.00;101119.97;3614893;39;20103;-66
2023/10/12 08:02:43;;;;;;;15.23;11.80;;;;;;;16.58;100.00;101112.44;3614551;39;20115;-63
2023/10/12 08:05:18;;;;;;;16.35;11.82;;;;;;;16.54;100.00;101094.69;3615792;39;20062;-65
2023/10/12 08:15:58;;;;;;;16.05;12.13;;;;;;;16.80;100.00;101131.41;3615271;39;20061;-65
2023/10/12 08:23:49;;;;;;;14.80;11.30;;;;;;;16.87;100.00;101138.09;3617991;39;20049;-64
2023/10/12 08:29:09;;;;;;;18.38;13.07;;;;;;;16.97;100.00;101134.56;3616470;39;20080;-66
2023/10/12 08:31:43;;;;;;;18.48;12.25;;;;;;;17.05;100.00;101137.50;3614693;39;20047;-66
2023/10/12 08:37:17;;;;;;;20.13;12.57;;;;;;;17.20;100.00;101138.94;3619830;39;20062;-66
2023/10/12 08:39:49;;;;;;;17.90;12.48;;;;;;;17.33;100.00;101134.19;3614604;39;20118;-65
2023/10/12 08:45:15;;;;;;;18.13;11.73;;;;;;;17.47;100.00;101135.72;3614805;39;20049;-67
2023/10/12 08:47:49;;;;;;;15.45;11.55;;;;;;;17.54;99.52;101145.09;3615309;39;20394;-67
2023/10/12 08:52:51;;;;;;;17.10;11.43;;;;;;;17.57;99.49;101146.66;3615767;39;20059;-65
2023/10/12 08:55:24;;;;;;;16.75;10.77;;;;;;;17.62;98.42;101164.28;3609023;39;20057;-67
2023/10/12 08:58:38;;;;;;;12.82;10.30;;;;;;;17.63;98.33;101170.59;3618323;39;20058;-70
2023/10/12 09:01:10;;;;;;;;;;;;;;;17.65;98.60;101171.31;3617043;39;20051;-64
2023/10/12 09:03:46;;;;;;;18.50;11.18;;;;;;;17.65;98.78;101163.16;3616582;39;20314;-65
2023/10/12 09:08:57;;;;;;;17.85;10.88;;;;;;;17.67;97.30;101160.34;3618509;39;20061;-64
2023/10/12 09:11:34;;;;;;;16.27;10.63;;;;;;;17.68;96.18;101162.91;3609681;39;20063;-67
2023/10/12 09:14:11;;;;;;;13.27;10.52;;;;;;;17.68;97.20;101160.19;3618857;39;20057;-65
2023/10/12 09:16:38;;;;;;;13.45;10.20;;;;;;;17.73;97.27;101166.09;3618314;39;20343;-65
2023/10/12 09:19:07;;;;;;;14.95;10.77;;;;;;;17.74;97.33;101173.25;3615815;39;20046;-65
2023/10/12 09:21:39;;;;;;;19.42;10.90;;;;;;;17.71;97.15;101168.09;3614835;39;20059;-64
2023/10/12 09:24:21;;;;;;;14.25;10.82;;;;;;;17.77;97.44;101173.03;3616480;39;20053;-67
2023/10/12 09:26:57;;;;;;;17.30;11.18;;;;;;;17.77;97.43;101167.59;3614979;39;20061;-65
2023/10/12 09:29:27;;;;;;;15.07;10.40;;;;;;;17.79;96.83;101171.03;3617822;39;20112;-65
2023/10/12 09:37:21;;;;;;;15.52;11.57;;;;;;;17.87;97.22;101162.22;3613209;39;20045;-65
2023/10/12 09:39:48;;;;;;;18.08;11.18;;;;;;;17.88;96.35;101157.63;3617691;39;20042;-65
2023/10/12 09:42:28;;;;;;;15.15;11.68;;;;;;;17.88;97.45;101157.63;3613124;39;20054;-66
2023/10/12 09:45:05;;;;;;;18.42;11.48;;;;;;;17.88;97.67;101161.19;3615842;39;20047;-64
2023/10/12 09:47:44;;;;;;;12.65;10.57;;;;;;;17.79;96.89;101149.28;3614674;39;20143;-65
2023/10/12 09:50:13;;;;;;;16.65;11.68;;;;;;;17.84;96.22;101154.31;3618109;39;20035;-64
2023/10/12 09:52:46;;;;;;;14.13;11.55;;;;;;;17.82;96.16;101157.19;3615672;39;20122;-64
2023/10/12 09:55:24;;;;;;;17.83;11.35;;;;;;;17.86;97.18;101155.91;3616149;39;20062;-65
2023/10/12 09:57:52;;;;;;;14.35;11.32;;;;;;;17.84;96.80;101151.59;3618001;39;20046;-65
2023/10/12 10:00:28;;;;;;;15.90;11.77;;;;;;;17.85;96.30;101148.72;3615179;39;20055;-67
2023/10/12 10:03:03;;;;;;;18.35;11.35;;;;;;;17.84;96.89;101144.28;3616770;39;20377;-66
2023/10/12 10:06:03;;;;;;;18.33;11.65;;;;;;;17.76;96.28;101133.22;3613684;39;20050;-65
2023/10/12 10:08:29;;;;;;;15.82;11.70;;;;;;;17.89;96.50;101154.78;3614981;39;20186;-66
2023/10/12 10:10:59;;;;;;;16.90;11.90;;;;;;;17.91;97.51;101146.47;3617926;39;20313;-65
2023/10/12 10:13:49;;;;;;;17.48;12.20;;;;;;;17.94;96.92;101146.22;3617159;39;20365;-66
2023/10/12 10:16:19;;;;;;;16.50;12.10;;;;;;;17.98;97.61;101144.94;3604700;39;20071;-64
2023/10/12 10:18:49;;;;;;;17.15;12.00;;;;;;;17.84;96.69;101122.53;3615488;39;20396;-65
2023/10/12 10:21:19;;;;;;;19.75;11.68;;;;;;;17.91;96.88;101135.59;3617974;39;20102;-65
2023/10/12 10:23:52;;;;;;;16.52;11.50;;;;;;;17.91;96.67;101131.00;3615891;39;20067;-65
2023/10/12 10:26:34;;;;;;;15.65;11.50;;;;;;;17.97;96.49;101126.91;3616511;39;20122;-65
2023/10/12 10:29:06;;;;;;;16.55;11.40;;;;;;;18.03;96.88;101131.81;3617143;39;20061;-65
2023/10/12 10:31:41;;;;;;;15.07;11.68;;;;;;;18.12;98.01;101130.97;3620526;39;20094;-65
2023/10/12 10:34:10;;;;;;;15.88;11.70;;;;;;;18.19;98.02;101124.00;3618281;39;20039;-65
2023/10/12 10:36:36;;;;;;;15.68;11.25;;;;;;;18.12;95.97;101097.47;3617315;39;20059;-66
2023/10/12 10:41:54;;;;;;;16.88;11.63;;;;;;;18.16;97.11;101097.06;3619369;39;20049;-66
2023/10/12 10:44:23;;;;;;;14.82;10.73;;;;;;;18.32;96.57;101110.16;3619369;39;20070;-66
2023/10/12 10:47:07;;;;;;;20.73;10.82;;;;;;;18.39;95.69;101118.63;3617188;39;20310;-65
2023/10/12 10:49:33;;;;;;;16.05;10.40;;;;;;;18.43;94.70;101114.63;3617330;39;20047;-65
2023/10/12 10:54:39;;;;;;;17.25;10.57;;;;;;;18.53;94.97;101110.94;3614726;39;20119;-65
2023/10/12 10:57:15;;;;;;;15.02;9.80;;;;;;;18.53;93.72;101110.06;3616301;39;20094;-65
2023/10/12 10:59:45;;;;;;;15.55;10.43;;;;;;;18.59;92.51;101114.97;3618553;39;20054;-65
2023/10/12 11:02:11;;;;;;;19.17;10.57;;;;;;;18.63;93.09;101121.00;3615304;39;20458;-66
2023/10/12 11:07:13;;;;;;;14.80;11.20;;;;;;;18.70;93.33;101112.09;3614594;39;20051;-66
2023/10/12 11:12:25;;;;;;;16.65;10.35;;;;;;;18.78;92.78;101104.13;3616126;39;20409;-65
2023/10/12 11:17:41;;;;;;;14.85;10.60;;;;;;;18.53;91.68;101047.47;3618614;39;20057;-65
2023/10/12 11:20:34;;;;;;;16.77;10.52;;;;;;;18.78;91.60;101095.09;3614445;39;20058;-65
2023/10/12 11:23:02;;;;;;;13.57;9.17;;;;;;;18.60;91.78;101067.66;3618350;39;20054;-65
2023/10/12 11:25:28;;;;;;;13.00;9.55;;;;;;;18.79;90.73;101105.00;3615991;39;20340;-65
2023/10/12 11:27:53;;;;;;;12.93;8.98;;;;;;;18.75;89.59;101112.59;3616933;39;20419;-66
2023/10/12 11:30:30;;;;;;;15.20;9.40;;;;;;;18.69;88.75;101102.22;3618375;39;20042;-66
2023/10/12 11:32:58;;;;;;;13.30;8.57;;;;;;;18.75;89.58;101109.00;3615724;39;20054;-65
2023/10/12 11:35:43;;;;;;;14.30;9.18;;;;;;;18.65;88.82;101094.47;3616132;39;20047;-65
2023/10/12 11:38:19;;;;;;;13.98;9.23;;;;;;;18.72;88.93;101104.69;3615824;39;20063;-65
2023/10/12 11:40:53;;;;;;;13.25;7.70;;;;;;;18.80;87.38;101101.25;3615363;39;20112;-65
2023/10/12 11:43:43;;;;;;;15.13;8.63;;;;;;;18.72;87.69;101098.38;3618051;39;20055;-65
2023/10/12 11:46:09;;;;;;;13.30;8.48;;;;;;;18.71;86.76;101100.22;3619884;39;20381;-65
2023/10/12 11:48:35;;;;;;;10.70;7.70;;;;;;;18.69;87.29;101101.38;3620160;39;20062;-65
2023/10/12 11:51:13;;;;;;;10.82;7.78;;;;;;;18.70;86.44;101081.28;3618255;39;20054;-65
2023/10/12 11:53:40;;;;;;;11.57;7.93;;;;;;;18.73;86.67;101089.22;3617455;39;20471;-64
2023/10/12 11:56:12;;;;;;;11.27;7.60;;;;;;;18.69;86.39;101080.44;3615569;39;20058;-64
2023/10/12 11:58:38;;;;;;;14.27;7.55;;;;;;;17.97;86.16;100955.53;3615755;39;20476;-65
2023/10/12 12:01:07;;;;;;;9.85;7.50;;;;;;;18.14;86.56;100983.91;3615404;39;20054;-66
2023/10/12 12:03:39;;;;;;;13.25;7.53;;;;;;;18.71;86.06;101083.00;3613328;39;20061;-65
2023/10/12 12:06:11;;;;;;;13.88;7.32;;;;;;;18.71;85.93;101088.44;3613890;39;20063;-65
2023/10/12 12:08:36;;;;;;;10.38;7.35;;;;;;;18.64;85.62;101080.00;3614239;39;20062;-65
2023/10/12 12:11:03;;;;;;;13.63;7.43;;;;;;;18.66;86.22;101083.44;3615148;39;20326;-67
2023/10/12 12:13:29;;;;;;;11.95;7.13;;;;;;;18.64;86.71;101081.84;3615351;39;20046;-64
2023/10/12 12:15:57;;;;;;;14.30;7.70;;;;;;;18.59;86.83;101082.28;3616292;39;20074;-69
2023/10/12 12:18:23;;;;;;;9.80;7.25;;;;;;;18.59;86.74;101071.41;3616033;39;20098;-66
2023/10/12 12:20:58;;;;;;;12.27;7.30;;;;;;;18.56;86.68;101072.53;3612440;39;20356;-65
2023/10/12 12:23:27;;;;;;;9.43;7.10;;;;;;;18.54;87.73;101068.22;3620721;39;20107;-66
2023/10/12 12:26:04;;;;;;;9.57;7.38;;;;;;;18.54;87.41;101060.91;3613395;39;20067;-66
2023/10/12 12:28:32;;;;;;;9.80;7.40;;;;;;;18.48;87.80;101042.41;3616910;39;20054;-66
2023/10/12 12:31:00;;;;;;;10.60;7.10;;;;;;;18.44;87.98;101045.56;3613924;39;20424;-65
2023/10/12 12:33:29;;;;;;;13.43;7.88;;;;;;;18.42;88.69;101047.56;3619053;39;20046;-65
2023/10/12 12:36:07;;;;;;;13.32;7.50;;;;;;;18.40;89.05;101049.59;3615430;39;20059;-67
2023/10/12 12:40:59;;;;;;;13.00;8.55;;;;;;;18.30;90.87;101025.94;3616192;39;20431;-67
2023/10/12 12:43:25;;;;;;;15.13;9.43;;;;;;;18.22;91.68;101023.03;3617515;39;20058;-67
2023/10/12 12:45:54;;;;;;;15.15;8.38;;;;;;;18.18;91.77;101021.59;3618724;39;20094;-67
2023/10/12 12:48:20;;;;;;;12.23;8.43;;;;;;;18.03;93.71;101017.53;3617495;39;20115;-67
2023/10/12 12:50:49;;;;;;;12.88;8.20;;;;;;;18.09;94.27;101036.03;3617491;39;20520;-67
2023/10/12 12:53:19;;;;;;;14.93;8.90;;;;;;;18.04;93.93;101041.88;3613732;39;20397;-66
2023/10/12 12:55:46;;;;;;;12.95;8.43;;;;;;;18.02;94.34;101027.56;3616961;39;20039;-66
2023/10/12 12:58:17;;;;;;;14.82;9.07;;;;;;;17.99;95.00;101029.72;3616298;39;20056;-67
2023/10/12 13:00:46;;;;;;;14.57;8.88;;;;;;;17.93;95.62;101027.53;3605675;39;20050;-66
2023/10/12 13:03:13;;;;;;;15.50;9.65;;;;;;;17.92;96.14;101028.50;3616748;39;20081;-66
2023/10/12 13:05:39;;;;;;;14.65;9.13;;;;;;;17.95;96.64;101031.84;3607314;39;20047;-65
2023/10/12 13:08:07;;;;;;;14.35;9.43;;;;;;;17.98;96.05;101041.56;3608095;39;20053;-67
2023/10/12 13:10:34;;;;;;;15.18;9.23;;;;;;;17.75;96.16;101008.25;3617614;39;20119;-67
2023/10/12 13:13:01;;;;;;;13.95;9.98;;;;;;;17.95;96.58;101050.88;3622331;39;20410;-67
2023/10/12 13:15:27;;;;;;;16.40;9.88;;;;;;;17.96;96.90;101036.28;3616139;39;20094;-67
2023/10/12 13:17:56;;;;;;;15.15;9.23;;;;;;;17.97;96.11;101039.84;3620431;39;20091;-65
2023/10/12 13:20:21;;;;;;;15.43;9.15;;;;;;;17.89;96.77;101018.78;3616542;39;20054;-67
2023/10/12 13:22:49;;;;;;;14.23;9.27;;;;;;;17.93;96.57;101019.38;3615528;39;20058;-67
2023/10/12 13:25:17;;;;;;;15.95;9.98;;;;;;;18.04;97.29;101032.84;3616104;39;20373;-68
2023/10/12 13:27:46;;;;;;;19.73;10.20;;;;;;;18.09;97.15;101036.03;3617003;39;20050;-67
2023/10/12 13:30:14;;;;;;;17.45;9.65;;;;;;;18.15;96.79;101034.63;3618418;39;20050;-66
2023/10/12 13:32:42;;;;;;;17.00;9.65;;;;;;;18.20;97.04;101026.88;3618038;39;20050;-65
2023/10/12 13:35:18;;;;;;;12.75;9.65;;;;;;;18.28;95.58;101030.63;3604113;39;20061;-66
2023/10/12 13:37:47;;;;;;;14.68;10.13;;;;;;;18.28;96.24;101036.09;3616467;39;20154;-68
2023/10/12 13:40:16;;;;;;;20.10;9.90;;;;;;;18.35;96.16;101030.09;3616824;39;20055;-67
2023/10/12 13:42:43;;;;;;;14.10;9.73;;;;;;;18.40;95.80;101017.78;3619790;39;20076;-67
2023/10/12 13:45:12;;;;;;;15.18;9.65;;;;;;;18.44;94.93;101031.97;3621682;39;20681;-66
2023/10/12 13:47:42;;;;;;;12.73;9.35;;;;;;;18.45;94.52;101025.50;3621213;39;20054;-66
2023/10/12 13:50:10;;;;;;;13.95;8.50;;;;;;;18.47;93.77;101023.53;3613643;39;20306;-67
2023/10/12 13:52:40;;;;;;;13.85;8.63;;;;;;;18.46;92.20;101027.25;3613041;39;20058;-66
2023/10/12 13:55:12;;;;;;;12.57;8.93;;;;;;;18.47;93.01;101023.53;3613717;39;20179;-68
2023/10/12 13:57:55;;;;;;;14.52;8.75;;;;;;;18.48;92.47;101022.50;3615599;39;20054;-66
2023/10/12 14:00:27;;;;;;;11.02;7.10;;;;;;;18.54;93.16;101014.63;3613120;39;20050;-65
2023/10/12 14:02:56;;;;;;;12.25;7.53;;;;;;;18.56;92.15;101014.50;3612567;39;20356;-66
2023/10/12 14:05:29;;;;;;;10.88;7.68;;;;;;;18.54;91.72;101009.19;3615823;39;20051;-66
2023/10/12 14:08:01;;;;;;;15.40;7.32;;;;;;;18.60;91.92;101010.50;3617098;39;20417;-67
2023/10/12 14:10:27;;;;;;;14.07;7.80;;;;;;;18.60;91.43;100996.03;3616158;39;20059;-66
2023/10/12 14:12:54;;;;;;;11.05;7.43;;;;;;;18.59;90.68;101008.78;3618558;39;20063;-66